Time;durP1;ratioP1;P1;durP2;ratioP2;P2;SDS_P1;SDS_P2;PMS_P1;PMS_P2;Temp;Humidity;BMP_temperature;BMP_pressure;BME280_temperature;BME280_humidity;BME280_pressure;Samples;Min_cycle;Max_cycle;Signal;HPM_P1;HPM_P2
2022/07/21 00:01:56;;;;;;;3.83;2.40;;;;;;;;;;5055482;28;20402;-79
2022/07/21 00:04:42;;;;;;;6.57;2.58;;;;;;;;;;5055229;28;20045;-78
2022/07/21 00:07:27;;;;;;;4.45;2.78;;;;;;;;;;5055514;28;20041;-78
2022/07/21 00:10:17;;;;;;;6.57;2.80;;;;;;;;;;5054953;28;20052;-77
2022/07/21 00:13:02;;;;;;;4.10;3.00;;;;;;;;;;5056611;28;20048;-78
2022/07/21 00:15:48;;;;;;;5.68;2.70;;;;;;;;;;5056506;28;20053;-79
2022/07/21 00:18:34;;;;;;;3.70;2.90;;;;;;;;;;5055193;28;20049;-78
2022/07/21 00:21:19;;;;;;;8.32;3.30;;;;;;;;;;5056316;28;20033;-79
2022/07/21 00:24:11;;;;;;;9.13;3.13;;;;;;;;;;5055421;28;20402;-80
2022/07/21 00:26:57;;;;;;;9.93;2.83;;;;;;;;;;5055106;28;20049;-77
2022/07/21 00:29:42;;;;;;;5.32;2.65;;;;;;;;;;5057353;28;20406;-78
2022/07/21 00:32:28;;;;;;;5.13;3.05;;;;;;;;;;5054600;28;20041;-79
2022/07/21 00:35:13;;;;;;;3.97;2.55;;;;;;;;;;5054861;28;20402;-78
2022/07/21 00:37:59;;;;;;;5.93;2.67;;;;;;;;;;5055289;28;20054;-78
2022/07/21 00:40:44;;;;;;;5.18;2.70;;;;;;;;;;5055148;28;20052;-79
2022/07/21 00:43:30;;;;;;;5.70;2.80;;;;;;;;;;5054603;28;20049;-77
2022/07/21 00:46:31;;;;;;;6.47;3.00;;;;;;;;;;5054902;28;20055;-78
2022/07/21 00:49:17;;;;;;;5.47;2.72;;;;;;;;;;5055984;28;20044;-78
2022/07/21 00:52:03;;;;;;;7.55;2.72;;;;;;;;;;5054200;28;20049;-80
2022/07/21 00:54:49;;;;;;;6.07;2.58;;;;;;;;;;5046093;28;20041;-82
2022/07/21 00:57:34;;;;;;;3.92;2.60;;;;;;;;;;5061043;28;20049;-82
2022/07/21 01:00:23;;;;;;;5.43;2.90;;;;;;;;;;5053488;28;20053;-81
2022/07/21 01:03:09;;;;;;;7.90;3.05;;;;;;;;;;5061053;28;20478;-82
2022/07/21 01:05:57;;;;;;;4.53;2.88;;;;;;;;;;5053702;28;20041;-80
2022/07/21 01:08:42;;;;;;;4.65;3.08;;;;;;;;;;5061622;28;20049;-79
2022/07/21 01:11:28;;;;;;;7.82;2.67;;;;;;;;;;5054488;28;20044;-79
2022/07/21 01:14:13;;;;;;;8.15;3.05;;;;;;;;;;5053384;28;20409;-79
2022/07/21 01:17:01;;;;;;;4.03;2.50;;;;;;;;;;5054358;28;20033;-79
2022/07/21 01:19:47;;;;;;;4.90;2.63;;;;;;;;;;5053484;28;20045;-78
2022/07/21 01:22:34;;;;;;;4.10;2.72;;;;;;;;;;5053504;28;20045;-78
2022/07/21 01:25:20;;;;;;;3.72;2.40;;;;;;;;;;5054257;28;20041;-78
2022/07/21 01:28:05;;;;;;;6.38;2.53;;;;;;;;;;5052989;28;20041;-82
2022/07/21 01:30:51;;;;;;;3.15;2.50;;;;;;;;;;5053918;28;20045;-81
2022/07/21 01:33:36;;;;;;;4.20;2.13;;;;;;;;;;5053777;28;20048;-81
2022/07/21 01:36:22;;;;;;;16.33;3.55;;;;;;;;;;5053594;28;20406;-79
2022/07/21 01:42:12;;;;;;;6.30;2.72;;;;;;;;;;5053277;28;20033;-81
2022/07/21 01:44:58;;;;;;;4.22;2.55;;;;;;;;;;5053779;28;20410;-82
2022/07/21 01:47:43;;;;;;;3.60;2.30;;;;;;;;;;5053607;28;20048;-80
2022/07/21 01:50:29;;;;;;;5.97;2.80;;;;;;;;;;5053294;28;20049;-80
2022/07/21 01:53:14;;;;;;;5.82;2.72;;;;;;;;;;5045348;28;20041;-80
2022/07/21 01:55:59;;;;;;;3.58;2.55;;;;;;;;;;5053224;28;20044;-79
2022/07/21 01:58:44;;;;;;;6.75;2.80;;;;;;;;;;5053715;28;20474;-79
2022/07/21 02:01:31;;;;;;;3.85;2.25;;;;;;;;;;5053427;28;20037;-79
2022/07/21 02:04:17;;;;;;;4.22;2.30;;;;;;;;;;5052917;28;20040;-81
2022/07/21 02:07:03;;;;;;;3.90;2.40;;;;;;;;;;5059960;28;20053;-81
2022/07/21 02:09:48;;;;;;;26.45;14.80;;;;;;;;;;5059640;28;20056;-81
2022/07/21 02:12:33;;;;;;;11.40;5.70;;;;;;;;;;5053248;28;20049;-81
2022/07/21 02:15:19;;;;;;;3.80;2.85;;;;;;;;;;5059985;28;20045;-81
2022/07/21 02:18:04;;;;;;;7.50;3.00;;;;;;;;;;5052811;28;20041;-81
2022/07/21 02:20:51;;;;;;;6.22;3.42;;;;;;;;;;5053013;28;20490;-79
2022/07/21 02:23:36;;;;;;;7.57;3.00;;;;;;;;;;5052839;28;20049;-81
2022/07/21 02:26:22;;;;;;;6.45;3.40;;;;;;;;;;5053437;28;20406;-79
2022/07/21 02:29:07;;;;;;;3.97;2.85;;;;;;;;;;5053335;28;20045;-81
2022/07/21 02:31:53;;;;;;;6.60;2.92;;;;;;;;;;5053349;28;20045;-79
2022/07/21 02:34:38;;;;;;;15.68;2.92;;;;;;;;;;5063696;28;20045;-79
2022/07/21 02:37:24;;;;;;;5.57;3.03;;;;;;;;;;5057017;28;20053;-81
2022/07/21 02:40:09;;;;;;;4.25;2.90;;;;;;;;;;5056171;28;20049;-80
2022/07/21 02:42:55;;;;;;;5.97;3.25;;;;;;;;;;5062048;28;20049;-80
2022/07/21 02:45:41;;;;;;;4.35;2.60;;;;;;;;;;5063216;28;20037;-81
2022/07/21 02:48:27;;;;;;;3.85;2.63;;;;;;;;;;5057070;28;20402;-81
2022/07/21 02:51:13;;;;;;;5.10;2.70;;;;;;;;;;5063744;28;20036;-81
2022/07/21 02:53:58;;;;;;;3.72;2.90;;;;;;;;;;5056088;28;20483;-81
2022/07/21 02:56:44;;;;;;;8.40;2.90;;;;;;;;;;5057064;28;20053;-82
2022/07/21 02:59:29;;;;;;;6.03;2.60;;;;;;;;;;5056182;28;20049;-79
2022/07/21 03:02:15;;;;;;;4.10;2.83;;;;;;;;;;5056554;28;20045;-80
2022/07/21 03:05:01;;;;;;;3.92;2.58;;;;;;;;;;5056653;28;20398;-81
2022/07/21 03:07:46;;;;;;;6.50;3.08;;;;;;;;;;5056049;28;20045;-78
2022/07/21 03:10:32;;;;;;;9.07;3.33;;;;;;;;;;5056456;28;20510;-80
2022/07/21 03:13:17;;;;;;;7.45;3.22;;;;;;;;;;5056590;28;20045;-80
2022/07/21 03:16:03;;;;;;;6.43;3.58;;;;;;;;;;5056215;28;20045;-78
2022/07/21 03:18:49;;;;;;;6.80;3.75;;;;;;;;;;5056486;28;20052;-80
2022/07/21 03:21:35;;;;;;;5.50;3.20;;;;;;;;;;5055641;28;20049;-80
2022/07/21 03:24:20;;;;;;;6.30;3.50;;;;;;;;;;5062939;28;20041;-79
2022/07/21 03:27:05;;;;;;;6.43;3.10;;;;;;;;;;5055908;28;20486;-81
2022/07/21 03:29:51;;;;;;;7.45;2.97;;;;;;;;;;5055731;28;20057;-78
2022/07/21 03:32:38;;;;;;;9.07;3.08;;;;;;;;;;5055902;28;20037;-78
2022/07/21 03:35:24;;;;;;;9.07;3.03;;;;;;;;;;5055329;28;20049;-80
2022/07/21 03:38:09;;;;;;;12.27;3.40;;;;;;;;;;5055832;28;20045;-78
2022/07/21 03:40:55;;;;;;;7.80;3.85;;;;;;;;;;5055473;28;20049;-80
2022/07/21 03:43:40;;;;;;;9.23;4.32;;;;;;;;;;5053980;28;20052;-82
2022/07/21 03:46:25;;;;;;;8.23;4.20;;;;;;;;;;5055902;28;20037;-79
2022/07/21 03:49:11;;;;;;;7.07;4.47;;;;;;;;;;5055310;28;20482;-81
2022/07/21 03:51:56;;;;;;;10.15;4.57;;;;;;;;;;5055475;28;20053;-81
2022/07/21 03:54:42;;;;;;;8.43;4.18;;;;;;;;;;5055831;28;20045;-81
2022/07/21 03:57:28;;;;;;;7.28;4.32;;;;;;;;;;5058286;28;20044;-80
2022/07/21 04:00:17;;;;;;;6.35;4.10;;;;;;;;;;5055505;28;20037;-80
2022/07/21 04:03:05;;;;;;;7.15;4.15;;;;;;;;;;5055879;28;20045;-81
2022/07/21 04:05:50;;;;;;;4.53;3.30;;;;;;;;;;5055127;28;20053;-81
2022/07/21 04:08:37;;;;;;;5.30;2.90;;;;;;;;;;5055315;28;20033;-81
2022/07/21 04:11:23;;;;;;;8.60;3.08;;;;;;;;;;5054666;28;20433;-79
2022/07/21 04:14:08;;;;;;;7.00;2.90;;;;;;;;;;5055073;28;20047;-78
2022/07/21 04:16:54;;;;;;;6.35;5.00;;;;;;;;;;5061923;28;20049;-80
2022/07/21 04:19:39;;;;;;;6.07;4.15;;;;;;;;;;5054522;28;20483;-80
2022/07/21 04:22:25;;;;;;;7.25;4.18;;;;;;;;;;5054884;28;20045;-81
2022/07/21 04:25:11;;;;;;;8.20;4.47;;;;;;;;;;5054626;28;20037;-83
2022/07/21 04:27:58;;;;;;;6.88;3.85;;;;;;;;;;5054843;28;20040;-82
2022/07/21 04:30:44;;;;;;;7.72;3.55;;;;;;;;;;5061825;28;20045;-80
2022/07/21 04:33:29;;;;;;;6.47;3.58;;;;;;;;;;5061031;28;20439;-82
2022/07/21 04:36:15;;;;;;;5.70;2.95;;;;;;;;;;5054769;28;20049;-76
2022/07/21 04:39:00;;;;;;;9.68;3.40;;;;;;;;;;5060693;28;20045;-77
2022/07/21 04:41:45;;;;;;;7.68;2.97;;;;;;;;;;5054303;28;20057;-75
2022/07/21 04:44:31;;;;;;;11.48;3.28;;;;;;;;;;5054026;28;20514;-77
2022/07/21 04:47:16;;;;;;;8.23;2.75;;;;;;;;;;5060415;28;20045;-76
2022/07/21 04:50:02;;;;;;;5.32;2.65;;;;;;;;;;5054271;28;20053;-76
2022/07/21 04:52:49;;;;;;;9.00;3.08;;;;;;;;;;5046347;28;20382;-75
2022/07/21 04:55:34;;;;;;;9.05;3.17;;;;;;;;;;5053963;28;20045;-77
2022/07/21 04:58:20;;;;;;;8.10;3.10;;;;;;;;;;5054222;28;20041;-76
2022/07/21 05:01:05;;;;;;;9.77;3.17;;;;;;;;;;5060336;28;20049;-74
2022/07/21 05:03:51;;;;;;;8.18;3.10;;;;;;;;;;5054035;28;20041;-76
2022/07/21 05:06:36;;;;;;;9.90;3.22;;;;;;;;;;5054079;28;20485;-76
2022/07/21 05:09:22;;;;;;;6.22;2.85;;;;;;;;;;5053553;28;20041;-75
2022/07/21 05:12:08;;;;;;;8.38;3.25;;;;;;;;;;5053951;28;20040;-76
2022/07/21 05:14:53;;;;;;;6.45;2.80;;;;;;;;;;5053582;28;20041;-76
2022/07/21 05:17:40;;;;;;;6.82;2.60;;;;;;;;;;5053760;28;20041;-78
2022/07/21 05:20:25;;;;;;;4.97;2.40;;;;;;;;;;5053935;28;20049;-76
2022/07/21 05:23:11;;;;;;;9.95;2.42;;;;;;;;;;5053204;28;20498;-76
2022/07/21 05:25:56;;;;;;;7.35;2.67;;;;;;;;;;5039220;28;20049;-76
2022/07/21 05:28:43;;;;;;;8.55;2.25;;;;;;;;;;5053491;28;20037;-77
2022/07/21 05:31:28;;;;;;;4.40;2.67;;;;;;;;;;5053523;28;20049;-76
2022/07/21 05:34:13;;;;;;;8.02;2.80;;;;;;;;;;5053692;28;20044;-77
2022/07/21 05:36:59;;;;;;;8.05;3.05;;;;;;;;;;5053242;28;20487;-78
2022/07/21 05:39:43;;;;;;;7.88;2.88;;;;;;;;;;5053500;28;20049;-79
2022/07/21 05:42:29;;;;;;;11.15;2.95;;;;;;;;;;5053505;28;20049;-77
2022/07/21 05:45:15;;;;;;;3.28;2.25;;;;;;;;;;5053216;28;20486;-79
2022/07/21 05:48:00;;;;;;;5.45;2.17;;;;;;;;;;5053492;28;20045;-77
2022/07/21 05:50:46;;;;;;;11.15;2.47;;;;;;;;;;5053054;28;20049;-78
2022/07/21 05:53:31;;;;;;;6.97;2.75;;;;;;;;;;5053500;28;20045;-77
2022/07/21 05:56:17;;;;;;;6.35;2.50;;;;;;;;;;5060736;28;20033;-78
2022/07/21 05:59:02;;;;;;;7.78;2.40;;;;;;;;;;5052793;28;20041;-77
2022/07/21 06:01:48;;;;;;;8.43;2.72;;;;;;;;;;5052946;28;20040;-77
2022/07/21 06:04:34;;;;;;;5.75;2.97;;;;;;;;;;5059703;28;20479;-77
2022/07/21 06:07:19;;;;;;;4.20;2.72;;;;;;;;;;5061265;28;20045;-77
2022/07/21 06:10:06;;;;;;;4.05;2.58;;;;;;;;;;5064140;28;20053;-78
2022/07/21 06:12:51;;;;;;;6.78;3.28;;;;;;;;;;5057014;28;20394;-77
2022/07/21 06:15:37;;;;;;;10.68;2.90;;;;;;;;;;5043686;28;20049;-77
2022/07/21 06:18:22;;;;;;;7.63;2.80;;;;;;;;;;5064332;28;20037;-77
2022/07/21 06:21:08;;;;;;;4.90;2.50;;;;;;;;;;5056880;28;20041;-77
2022/07/21 06:23:54;;;;;;;6.60;2.60;;;;;;;;;;5057324;28;20049;-77
2022/07/21 06:26:40;;;;;;;6.32;2.70;;;;;;;;;;5063355;28;20394;-77
2022/07/21 06:29:28;;;;;;;7.32;3.47;;;;;;;;;;5057815;28;20382;-77
2022/07/21 06:32:14;;;;;;;8.18;3.60;;;;;;;;;;5064425;28;20045;-76
2022/07/21 06:34:59;;;;;;;9.93;2.42;;;;;;;;;;5056324;28;20387;-76
2022/07/21 06:37:45;;;;;;;6.57;3.25;;;;;;;;;;5057179;28;20406;-77
2022/07/21 06:40:31;;;;;;;8.63;2.80;;;;;;;;;;5063302;28;20041;-77
2022/07/21 06:43:16;;;;;;;7.32;3.17;;;;;;;;;;5060933;28;20053;-77
2022/07/21 06:46:00;;;;;;;4.93;2.70;;;;;;;;;;5057720;28;20049;-78
2022/07/21 06:48:46;;;;;;;6.10;2.70;;;;;;;;;;5056445;28;20057;-77
2022/07/21 06:51:32;;;;;;;9.68;2.95;;;;;;;;;;5057094;28;20049;-77
2022/07/21 06:54:17;;;;;;;3.88;2.38;;;;;;;;;;5056328;28;20041;-77
2022/07/21 06:57:03;;;;;;;5.50;2.55;;;;;;;;;;5056549;28;20498;-77
2022/07/21 06:59:49;;;;;;;5.88;2.88;;;;;;;;;;5063286;28;20041;-78
2022/07/21 07:02:34;;;;;;;7.93;2.72;;;;;;;;;;5055860;28;20040;-78
2022/07/21 07:05:20;;;;;;;10.10;2.65;;;;;;;;;;5055942;28;20053;-78
2022/07/21 07:08:05;;;;;;;4.90;2.92;;;;;;;;;;5062987;28;20045;-78
2022/07/21 07:10:51;;;;;;;4.53;2.70;;;;;;;;;;5056342;28;20052;-82
2022/07/21 07:13:36;;;;;;;6.72;2.17;;;;;;;;;;5057204;28;20045;-80
2022/07/21 07:16:22;;;;;;;4.30;2.60;;;;;;;;;;5059580;28;20033;-81
2022/07/21 07:19:08;;;;;;;6.30;2.80;;;;;;;;;;5061237;28;20037;-80
2022/07/21 07:21:54;;;;;;;8.23;2.95;;;;;;;;;;5059791;28;20044;-80
2022/07/21 07:24:39;;;;;;;6.82;2.70;;;;;;;;;;5060061;28;20053;-80
2022/07/21 07:27:24;;;;;;;5.75;3.00;;;;;;;;;;5059889;28;20045;-81
2022/07/21 07:30:11;;;;;;;4.57;2.85;;;;;;;;;;5066089;28;20415;-80
2022/07/21 07:32:56;;;;;;;7.13;2.63;;;;;;;;;;5066124;28;20049;-80
2022/07/21 07:35:42;;;;;;;5.22;3.25;;;;;;;;;;5059159;28;20036;-80
2022/07/21 07:38:27;;;;;;;7.60;2.80;;;;;;;;;;5055886;28;20429;-81
2022/07/21 07:41:14;;;;;;;5.88;2.67;;;;;;;;;;5055644;28;20049;-79
2022/07/21 07:44:03;;;;;;;4.25;2.47;;;;;;;;;;5055450;28;20041;-81
2022/07/21 07:46:48;;;;;;;7.50;2.92;;;;;;;;;;5055816;28;20045;-81
2022/07/21 07:49:35;;;;;;;8.45;2.78;;;;;;;;;;5062367;28;20041;-80
2022/07/21 07:52:21;;;;;;;6.50;2.58;;;;;;;;;;5055504;28;20048;-80
2022/07/21 07:55:10;;;;;;;8.88;2.78;;;;;;;;;;5062124;28;20044;-80
2022/07/21 07:57:56;;;;;;;7.22;2.60;;;;;;;;;;5055546;28;20045;-80
2022/07/21 08:00:41;;;;;;;4.93;2.70;;;;;;;;;;5055226;28;20045;-79
2022/07/21 08:03:28;;;;;;;9.10;2.80;;;;;;;;;;5055408;28;20045;-80
2022/07/21 08:06:13;;;;;;;6.95;3.00;;;;;;;;;;5055714;28;20049;-79
2022/07/21 08:08:59;;;;;;;6.45;2.58;;;;;;;;;;5061792;28;20041;-78
2022/07/21 08:11:50;;;;;;;10.82;3.08;;;;;;;;;;5062023;28;20049;-78
2022/07/21 08:14:35;;;;;;;3.95;2.63;;;;;;;;;;5061804;28;20490;-78
2022/07/21 08:17:21;;;;;;;5.53;2.90;;;;;;;;;;5055064;28;20041;-78
2022/07/21 08:20:07;;;;;;;10.38;3.17;;;;;;;;;;5054864;28;20048;-77
2022/07/21 08:22:52;;;;;;;6.32;2.90;;;;;;;;;;5055031;28;20045;-78
2022/07/21 08:25:38;;;;;;;9.10;3.10;;;;;;;;;;5061581;28;20390;-77
2022/07/21 08:28:23;;;;;;;8.77;2.97;;;;;;;;;;5055047;28;20417;-78
2022/07/21 08:31:09;;;;;;;6.18;2.70;;;;;;;;;;5061269;28;20048;-78
2022/07/21 08:33:55;;;;;;;6.43;2.85;;;;;;;;;;5054607;28;20045;-79
2022/07/21 08:36:41;;;;;;;4.32;2.35;;;;;;;;;;5054890;28;20041;-78
2022/07/21 08:39:26;;;;;;;5.10;2.80;;;;;;;;;;5054928;28;20482;-78
2022/07/21 08:42:12;;;;;;;4.82;2.33;;;;;;;;;;5054298;28;20406;-77
2022/07/21 08:44:58;;;;;;;5.93;2.20;;;;;;;;;;5054544;28;20048;-77
2022/07/21 08:47:44;;;;;;;5.13;2.10;;;;;;;;;;5054681;28;20049;-76
2022/07/21 08:50:33;;;;;;;3.70;2.30;;;;;;;;;;5054479;28;20056;-80
2022/07/21 08:53:19;;;;;;;5.88;2.60;;;;;;;;;;5054350;28;20048;-78
2022/07/21 08:56:04;;;;;;;3.92;2.30;;;;;;;;;;5054130;28;20422;-79
2022/07/21 08:58:49;;;;;;;2.90;2.15;;;;;;;;;;5061025;28;20040;-78
2022/07/21 09:01:37;;;;;;;5.20;2.10;;;;;;;;;;5053902;28;20045;-78
2022/07/21 09:04:31;;;;;;;10.77;2.45;;;;;;;;;;5060863;28;20418;-80
2022/07/21 09:07:18;;;;;;;3.40;2.05;;;;;;;;;;5054172;28;20041;-76
2022/07/21 09:10:04;;;;;;;8.77;2.75;;;;;;;;;;5054050;28;20048;-77
2022/07/21 09:12:58;;;;;;;7.72;2.47;;;;;;;;;;5054115;28;20041;-77
2022/07/21 09:15:47;;;;;;;6.85;2.30;;;;;;;;;;5054428;28;20490;-77
2022/07/21 09:18:33;;;;;;;5.82;2.35;;;;;;;;;;5061133;28;20037;-77
2022/07/21 09:21:19;;;;;;;4.75;2.40;;;;;;;;;;5054843;28;20045;-77
2022/07/21 09:24:38;;;;;;;8.95;2.60;;;;;;;;;;5053646;28;20056;-79
2022/07/21 09:27:25;;;;;;;3.92;2.30;;;;;;;;;;5060744;28;20037;-78
2022/07/21 09:30:10;;;;;;;8.70;2.50;;;;;;;;;;5060428;28;20474;-79
2022/07/21 09:32:55;;;;;;;4.47;2.30;;;;;;;;;;5060513;28;20399;-80
2022/07/21 09:35:56;;;;;;;3.55;2.22;;;;;;;;;;5054037;28;20467;-80
2022/07/21 09:38:42;;;;;;;4.60;1.95;;;;;;;;;;5045276;28;20398;-79
2022/07/21 09:41:29;;;;;;;6.80;2.17;;;;;;;;;;5053025;28;20038;-82
2022/07/21 09:44:31;;;;;;;4.22;2.10;;;;;;;;;;5053638;28;20045;-78
2022/07/21 09:47:19;;;;;;;9.75;2.38;;;;;;;;;;5053900;28;20044;-76
2022/07/21 09:50:06;;;;;;;10.30;2.17;;;;;;;;;;5060631;28;20479;-78
2022/07/21 09:52:54;;;;;;;4.63;2.17;;;;;;;;;;5053419;28;20044;-77
2022/07/21 09:55:42;;;;;;;7.10;2.10;;;;;;;;;;5053453;28;20045;-78
2022/07/21 09:58:27;;;;;;;6.03;2.20;;;;;;;;;;5053433;28;20044;-77
2022/07/21 10:01:13;;;;;;;3.22;2.10;;;;;;;;;;5053539;28;20049;-80
2022/07/21 10:03:59;;;;;;;4.47;2.10;;;;;;;;;;5053723;28;20049;-80
2022/07/21 10:06:46;;;;;;;7.65;2.20;;;;;;;;;;5052802;28;20394;-79
2022/07/21 10:09:31;;;;;;;6.63;2.20;;;;;;;;;;5060092;28;20041;-79
2022/07/21 10:12:17;;;;;;;5.03;2.17;;;;;;;;;;5054485;28;20482;-78
2022/07/21 10:15:03;;;;;;;7.18;2.15;;;;;;;;;;5059881;28;20390;-78
2022/07/21 10:17:53;;;;;;;4.53;2.28;;;;;;;;;;5053241;28;20053;-78
2022/07/21 10:20:46;;;;;;;4.38;2.08;;;;;;;;;;5057613;28;20038;-76
2022/07/21 10:23:39;;;;;;;3.20;1.90;;;;;;;;;;5060449;28;20041;-77
2022/07/21 10:26:24;;;;;;;4.32;2.42;;;;;;;;;;5060598;28;20274;-79
2022/07/21 10:29:10;;;;;;;6.72;1.85;;;;;;;;;;5060959;28;20037;-78
2022/07/21 10:32:10;;;;;;;5.07;2.25;;;;;;;;;;5061231;28;20049;-78
2022/07/21 10:34:57;;;;;;;7.00;2.20;;;;;;;;;;5053336;28;20482;-78
2022/07/21 10:37:44;;;;;;;7.13;2.00;;;;;;;;;;5059987;28;20044;-78
2022/07/21 10:40:29;;;;;;;4.97;2.17;;;;;;;;;;5051637;28;20033;-78
2022/07/21 10:43:14;;;;;;;4.47;2.20;;;;;;;;;;5041962;28;20041;-78
2022/07/21 10:45:59;;;;;;;4.20;2.20;;;;;;;;;;5053191;28;20041;-78
2022/07/21 10:48:48;;;;;;;8.45;2.22;;;;;;;;;;5044716;28;20394;-80
2022/07/21 10:51:35;;;;;;;3.83;1.90;;;;;;;;;;5053122;28;20053;-78
2022/07/21 10:54:22;;;;;;;6.55;2.72;;;;;;;;;;5055823;28;20041;-78
2022/07/21 10:57:41;;;;;;;4.25;2.35;;;;;;;;;;5057586;28;20045;-77
2022/07/21 11:00:33;;;;;;;7.18;2.30;;;;;;;;;;5015327;28;20052;-76
2022/07/21 11:03:38;;;;;;;8.60;2.35;;;;;;;;;;5041586;28;20048;-76
2022/07/21 11:06:25;;;;;;;6.55;2.30;;;;;;;;;;5056457;28;20041;-76
2022/07/21 11:09:13;;;;;;;9.77;2.15;;;;;;;;;;5063004;28;20386;-76
2022/07/21 11:12:03;;;;;;;7.35;2.42;;;;;;;;;;5056536;28;20045;-77
2022/07/21 11:14:49;;;;;;;6.22;2.30;;;;;;;;;;5062759;28;20045;-76
2022/07/21 11:17:35;;;;;;;5.88;2.35;;;;;;;;;;5063026;28;20049;-75
2022/07/21 11:20:21;;;;;;;4.88;2.70;;;;;;;;;;5062841;28;20049;-77
2022/07/21 11:23:07;;;;;;;3.92;2.20;;;;;;;;;;5056217;28;20044;-76
2022/07/21 11:25:52;;;;;;;7.35;2.10;;;;;;;;;;5063150;28;20045;-76
2022/07/21 11:28:38;;;;;;;4.22;1.98;;;;;;;;;;5056022;28;20052;-78
2022/07/21 11:31:24;;;;;;;5.75;2.70;;;;;;;;;;5040994;28;20045;-77
2022/07/21 11:34:09;;;;;;;5.57;2.45;;;;;;;;;;5056116;28;20386;-77
2022/07/21 11:36:59;;;;;;;5.78;2.38;;;;;;;;;;5062548;28;20045;-77
2022/07/21 11:39:44;;;;;;;5.07;1.98;;;;;;;;;;5055972;28;20037;-77
2022/07/21 11:42:30;;;;;;;5.90;2.20;;;;;;;;;;5055381;28;20040;-76
2022/07/21 11:45:17;;;;;;;4.57;1.98;;;;;;;;;;5062717;28;20483;-77
2022/07/21 11:48:02;;;;;;;4.70;2.25;;;;;;;;;;5062346;28;20040;-77
2022/07/21 11:51:02;;;;;;;7.43;2.00;;;;;;;;;;5055582;28;20064;-77
2022/07/21 11:53:48;;;;;;;7.00;2.40;;;;;;;;;;5055970;28;20041;-78
2022/07/21 11:56:39;;;;;;;9.82;2.17;;;;;;;;;;5055714;28;20040;-78
2022/07/21 11:59:25;;;;;;;4.05;2.03;;;;;;;;;;5055765;28;20483;-78
2022/07/21 12:02:14;;;;;;;3.97;2.50;;;;;;;;;;5062520;28;20045;-77
2022/07/21 12:05:03;;;;;;;10.63;2.50;;;;;;;;;;5061076;28;20484;-78
2022/07/21 12:07:51;;;;;;;5.07;2.00;;;;;;;;;;5063257;28;20045;-77
2022/07/21 12:10:37;;;;;;;11.30;2.40;;;;;;;;;;5046998;28;20144;-75
2022/07/21 12:13:23;;;;;;;2.80;2.20;;;;;;;;;;5062813;28;20045;-80
2022/07/21 12:16:10;;;;;;;3.20;2.00;;;;;;;;;;5047149;28;20048;-77
2022/07/21 12:19:14;;;;;;;4.60;2.15;;;;;;;;;;5055586;28;20036;-78
2022/07/21 12:22:00;;;;;;;4.03;2.28;;;;;;;;;;5055633;28;20037;-78
2022/07/21 12:24:57;;;;;;;6.65;2.05;;;;;;;;;;5040311;28;20041;-78
2022/07/21 12:27:46;;;;;;;8.07;2.17;;;;;;;;;;5055555;28;20045;-79
2022/07/21 12:30:47;;;;;;;7.47;1.98;;;;;;;;;;5061488;28;20041;-77
2022/07/21 12:33:32;;;;;;;4.57;2.25;;;;;;;;;;5054940;28;20041;-76
2022/07/21 12:36:19;;;;;;;6.28;2.33;;;;;;;;;;5046803;28;20045;-76
2022/07/21 12:42:35;;;;;;;6.93;2.38;;;;;;;;;;5055154;28;20045;-79
2022/07/21 12:45:21;;;;;;;5.40;2.25;;;;;;;;;;5054848;28;20037;-77
2022/07/21 12:48:08;;;;;;;4.00;2.13;;;;;;;;;;5055156;28;20049;-76
2022/07/21 12:51:03;;;;;;;4.50;2.30;;;;;;;;;;5054518;28;20040;-77
2022/07/21 12:53:53;;;;;;;5.60;2.55;;;;;;;;;;5054403;28;20049;-77
2022/07/21 12:56:39;;;;;;;3.63;1.70;;;;;;;;;;5055307;28;20041;-77
2022/07/21 12:59:24;;;;;;;7.05;2.60;;;;;;;;;;5054402;28;20399;-77
2022/07/21 13:02:10;;;;;;;6.50;2.35;;;;;;;;;;5054132;28;20049;-77
2022/07/21 13:04:56;;;;;;;7.28;2.33;;;;;;;;;;5054264;28;20045;-77
2022/07/21 13:07:41;;;;;;;10.85;2.70;;;;;;;;;;5054131;28;20386;-78
2022/07/21 13:10:28;;;;;;;11.48;2.45;;;;;;;;;;5054484;28;20406;-77
2022/07/21 13:13:14;;;;;;;13.13;2.67;;;;;;;;;;5053651;28;20037;-77
2022/07/21 13:15:59;;;;;;;8.48;2.65;;;;;;;;;;5053927;28;20053;-76
2022/07/21 13:18:44;;;;;;;8.27;2.30;;;;;;;;;;5053948;28;20040;-76
2022/07/21 13:21:30;;;;;;;6.03;2.67;;;;;;;;;;5053709;28;20041;-77
2022/07/21 13:24:16;;;;;;;9.38;2.40;;;;;;;;;;5060548;28;20048;-76
2022/07/21 13:27:01;;;;;;;10.73;2.70;;;;;;;;;;5053846;28;20052;-81
2022/07/21 13:29:47;;;;;;;6.20;2.35;;;;;;;;;;5053766;28;20482;-76
2022/07/21 13:32:34;;;;;;;6.75;2.40;;;;;;;;;;5054069;28;20049;-77
2022/07/21 13:35:19;;;;;;;5.30;2.30;;;;;;;;;;5053786;28;20049;-78
2022/07/21 13:38:05;;;;;;;10.15;2.22;;;;;;;;;;5053931;28;20041;-77
2022/07/21 13:40:50;;;;;;;4.10;2.40;;;;;;;;;;5060280;28;20044;-76
2022/07/21 13:43:36;;;;;;;8.52;2.53;;;;;;;;;;5053229;28;20057;-76
2022/07/21 13:46:21;;;;;;;11.35;2.78;;;;;;;;;;5053558;28;20041;-76
2022/07/21 13:49:07;;;;;;;9.93;2.53;;;;;;;;;;5053727;28;20045;-76
2022/07/21 13:51:52;;;;;;;10.90;2.60;;;;;;;;;;5053447;28;20486;-78
2022/07/21 13:54:38;;;;;;;7.22;2.75;;;;;;;;;;5053430;28;20045;-78
2022/07/21 13:57:24;;;;;;;4.43;2.75;;;;;;;;;;5060233;28;20056;-76
2022/07/21 14:00:10;;;;;;;10.20;2.88;;;;;;;;;;5053273;28;20044;-77
2022/07/21 14:02:56;;;;;;;6.65;2.80;;;;;;;;;;5053261;28;20049;-79
2022/07/21 14:05:42;;;;;;;7.78;2.25;;;;;;;;;;5061374;28;20045;-78
2022/07/21 14:08:27;;;;;;;7.95;2.42;;;;;;;;;;5057934;28;20045;-79
2022/07/21 14:11:13;;;;;;;3.35;2.30;;;;;;;;;;5062923;28;20044;-78
2022/07/21 14:14:00;;;;;;;4.25;2.40;;;;;;;;;;5053306;28;20482;-78
2022/07/21 14:16:45;;;;;;;7.10;2.70;;;;;;;;;;5055817;28;20036;-79
2022/07/21 14:19:30;;;;;;;4.30;2.45;;;;;;;;;;5055821;28;20041;-79
2022/07/21 14:22:18;;;;;;;8.60;3.05;;;;;;;;;;5053438;28;20040;-78
2022/07/21 14:25:19;;;;;;;9.48;3.00;;;;;;;;;;5061290;28;20045;-78
2022/07/21 14:28:04;;;;;;;9.90;2.90;;;;;;;;;;5055917;28;20041;-79
2022/07/21 14:30:50;;;;;;;4.15;2.60;;;;;;;;;;5057347;28;20045;-78
2022/07/21 14:33:36;;;;;;;7.22;2.63;;;;;;;;;;5057452;28;20045;-77
2022/07/21 14:36:22;;;;;;;9.73;2.90;;;;;;;;;;5057346;28;20462;-78
2022/07/21 14:39:08;;;;;;;7.03;2.97;;;;;;;;;;5058414;28;20068;-76
2022/07/21 14:41:53;;;;;;;7.82;3.00;;;;;;;;;;5056924;28;20397;-78
2022/07/21 14:44:39;;;;;;;6.15;2.70;;;;;;;;;;5057917;28;20045;-78
2022/07/21 14:47:27;;;;;;;6.97;2.75;;;;;;;;;;5057349;28;20107;-78
2022/07/21 14:50:13;;;;;;;8.13;2.72;;;;;;;;;;5058610;28;20044;-78
2022/07/21 14:52:58;;;;;;;8.02;2.75;;;;;;;;;;5060102;28;20044;-78
2022/07/21 14:55:44;;;;;;;8.25;2.75;;;;;;;;;;5057141;28;20045;-77
2022/07/21 14:58:30;;;;;;;7.38;2.78;;;;;;;;;;5062939;28;20494;-77
2022/07/21 15:01:15;;;;;;;11.20;3.30;;;;;;;;;;5056536;28;20041;-77
2022/07/21 15:04:00;;;;;;;6.80;2.72;;;;;;;;;;5056325;28;20490;-77
2022/07/21 15:06:47;;;;;;;9.40;3.38;;;;;;;;;;5063648;28;20036;-77
2022/07/21 15:09:32;;;;;;;9.77;2.90;;;;;;;;;;5064443;28;20066;-78
2022/07/21 15:12:17;;;;;;;7.60;2.58;;;;;;;;;;5042329;28;20049;-77
2022/07/21 15:15:03;;;;;;;6.35;2.47;;;;;;;;;;5056685;28;20037;-78
2022/07/21 15:17:49;;;;;;;5.20;2.65;;;;;;;;;;5057322;28;20406;-77
2022/07/21 15:20:34;;;;;;;9.98;2.78;;;;;;;;;;5063057;28;20498;-79
2022/07/21 15:23:23;;;;;;;6.38;2.90;;;;;;;;;;5056289;28;20037;-78
2022/07/21 15:26:09;;;;;;;6.38;2.80;;;;;;;;;;5062931;28;20045;-78
2022/07/21 15:28:54;;;;;;;9.63;2.90;;;;;;;;;;5062691;28;20041;-77
2022/07/21 15:31:40;;;;;;;7.72;3.20;;;;;;;;;;5062785;28;20402;-77
2022/07/21 15:34:25;;;;;;;6.32;3.13;;;;;;;;;;5062579;28;20036;-78
2022/07/21 15:37:11;;;;;;;6.40;2.72;;;;;;;;;;5056028;28;20045;-78
2022/07/21 15:39:56;;;;;;;7.22;2.90;;;;;;;;;;5054641;28;20045;-77
2022/07/21 15:42:42;;;;;;;5.90;2.60;;;;;;;;;;5061144;28;20045;-79
2022/07/21 15:45:28;;;;;;;6.30;2.63;;;;;;;;;;5040693;28;20033;-78
2022/07/21 15:48:13;;;;;;;10.27;2.95;;;;;;;;;;5055363;28;20040;-79
2022/07/21 15:50:58;;;;;;;6.80;2.70;;;;;;;;;;5055840;28;20049;-77
2022/07/21 15:53:44;;;;;;;12.00;3.08;;;;;;;;;;5055912;28;20390;-76
2022/07/21 15:56:30;;;;;;;6.35;2.90;;;;;;;;;;5055671;28;20040;-77
2022/07/21 15:59:36;;;;;;;5.20;2.63;;;;;;;;;;5054562;28;20041;-78
2022/07/21 16:02:22;;;;;;;5.82;2.70;;;;;;;;;;5054898;28;20037;-77
2022/07/21 16:05:10;;;;;;;7.80;3.10;;;;;;;;;;5055549;28;20045;-77
2022/07/21 16:07:55;;;;;;;5.75;2.63;;;;;;;;;;5055695;28;20041;-77
2022/07/21 16:10:41;;;;;;;11.20;3.30;;;;;;;;;;5061768;28;20045;-76
2022/07/21 16:13:26;;;;;;;4.95;2.72;;;;;;;;;;5055453;28;20045;-77
2022/07/21 16:16:12;;;;;;;7.57;2.72;;;;;;;;;;5062392;28;20409;-80
2022/07/21 16:18:57;;;;;;;13.45;3.13;;;;;;;;;;5055506;28;20045;-79
2022/07/21 16:21:43;;;;;;;10.00;3.05;;;;;;;;;;5055111;28;20045;-77
2022/07/21 16:24:29;;;;;;;5.30;2.50;;;;;;;;;;5055266;28;20048;-79
2022/07/21 16:27:14;;;;;;;4.90;2.80;;;;;;;;;;5061769;28;20041;-79
2022/07/21 16:30:00;;;;;;;10.25;3.13;;;;;;;;;;5054794;28;20044;-78
2022/07/21 16:32:46;;;;;;;8.55;2.90;;;;;;;;;;5054966;28;20503;-76
2022/07/21 16:35:32;;;;;;;10.52;3.00;;;;;;;;;;5040020;28;20447;-77
2022/07/21 16:38:18;;;;;;;7.93;2.88;;;;;;;;;;5039994;28;20037;-77
2022/07/21 16:41:03;;;;;;;9.02;2.90;;;;;;;;;;5045904;28;20044;-78
2022/07/21 16:43:49;;;;;;;9.85;3.10;;;;;;;;;;5054294;28;20514;-77